Time;durP1;ratioP1;P1;durP2;ratioP2;P2;SDS_P1;SDS_P2;PMS_P1;PMS_P2;Temp;Humidity;BMP_temperature;BMP_pressure;BME280_temperature;BME280_humidity;BME280_pressure;Samples;Min_cycle;Max_cycle;Signal;HPM_P1;HPM_P2
2022/12/17 13:06:40;;;;;;;12.20;6.10;;;;;;;;;;4945582;29;20116;-81
2022/12/17 13:09:15;;;;;;;11.17;6.07;;;;;;;;;;4951823;29;20050;-83
2022/12/17 13:12:04;;;;;;;17.47;5.97;;;;;;;;;;4953491;29;20503;-81
2022/12/17 13:14:57;;;;;;;15.43;6.03;;;;;;;;;;4925389;29;20131;-81
2022/12/17 13:17:54;;;;;;;17.53;6.63;;;;;;;;;;4953418;29;20031;-81
2022/12/17 13:20:31;;;;;;;19.30;7.00;;;;;;;;;;4953117;29;20082;-82
2022/12/17 13:23:26;;;;;;;15.37;7.27;;;;;;;;;;4954696;29;20050;-81
2022/12/17 13:26:21;;;;;;;17.87;6.47;;;;;;;;;;4954087;29;20043;-82
2022/12/17 13:29:11;;;;;;;12.53;5.57;;;;;;;;;;4958149;28;20121;-80
2022/12/17 13:31:51;;;;;;;12.73;6.60;;;;;;;;;;4958409;28;20472;-81
2022/12/17 13:34:27;;;;;;;12.17;5.80;;;;;;;;;;4951829;29;20031;-81
2022/12/17 13:37:27;;;;;;;15.90;6.90;;;;;;;;;;4953209;29;20032;-81
2022/12/17 13:40:20;;;;;;;15.67;6.43;;;;;;;;;;4951565;29;20098;-80
2022/12/17 13:42:46;;;;;;;15.90;7.23;;;;;;;;;;4952802;28;20051;-81
2022/12/17 13:45:16;;;;;;;14.63;6.73;;;;;;;;;;4935558;29;20023;-80
2022/12/17 13:47:42;;;;;;;13.70;6.37;;;;;;;;;;4935643;29;20031;-81
2022/12/17 13:50:34;;;;;;;17.57;6.83;;;;;;;;;;4951263;28;20458;-80
2022/12/17 13:53:09;;;;;;;14.40;7.03;;;;;;;;;;4948091;28;20145;-76
2022/12/17 13:55:34;;;;;;;18.17;7.20;;;;;;;;;;4950486;29;20032;-79
2022/12/17 13:58:00;;;;;;;22.53;6.20;;;;;;;;;;4935199;29;20129;-79
2022/12/17 14:00:28;;;;;;;16.83;7.27;;;;;;;;;;4951869;28;20031;-81
2022/12/17 14:02:54;;;;;;;16.50;7.67;;;;;;;;;;4953302;29;20061;-81
2022/12/17 14:05:40;;;;;;;17.00;6.77;;;;;;;;;;4953478;28;20032;-81
2022/12/17 14:08:06;;;;;;;15.77;8.10;;;;;;;;;;4937379;29;20042;-81
2022/12/17 14:10:32;;;;;;;18.23;7.30;;;;;;;;;;4952146;28;20031;-80
2022/12/17 14:13:11;;;;;;;18.00;7.37;;;;;;;;;;4935192;29;20032;-80
2022/12/17 14:15:36;;;;;;;15.83;7.60;;;;;;;;;;4964536;29;20058;-82
2022/12/17 14:18:03;;;;;;;22.10;8.60;;;;;;;;;;4958100;28;20028;-79
2022/12/17 14:20:31;;;;;;;20.23;8.53;;;;;;;;;;4952713;29;20035;-80
2022/12/17 14:23:28;;;;;;;17.83;8.10;;;;;;;;;;4951157;29;20038;-81
2022/12/17 14:25:55;;;;;;;23.87;10.10;;;;;;;;;;4952207;29;20027;-81
2022/12/17 14:28:41;;;;;;;25.40;9.73;;;;;;;;;;4951007;29;20035;-78
2022/12/17 14:31:23;;;;;;;22.30;9.40;;;;;;;;;;4936628;29;20432;-81
2022/12/17 14:34:06;;;;;;;21.10;8.65;;;;;;;;;;4950303;28;20031;-81
2022/12/17 14:36:34;;;;;;;18.03;8.30;;;;;;;;;;4950813;29;20031;-79
2022/12/17 14:39:02;;;;;;;20.47;9.33;;;;;;;;;;4952278;29;20023;-80
2022/12/17 14:44:24;;;;;;;26.30;11.20;;;;;;;;;;4951769;29;20042;-82
2022/12/17 14:46:52;;;;;;;22.97;9.40;;;;;;;;;;4951608;28;20030;-82
2022/12/17 14:49:20;;;;;;;20.80;8.77;;;;;;;;;;4965851;28;20054;-81
2022/12/17 14:51:47;;;;;;;26.03;9.13;;;;;;;;;;4950382;29;20110;-80
2022/12/17 14:54:24;;;;;;;22.30;9.17;;;;;;;;;;4965989;28;20086;-80
2022/12/17 14:56:51;;;;;;;19.07;7.77;;;;;;;;;;4950793;29;20034;-80
2022/12/17 14:59:30;;;;;;;19.77;9.00;;;;;;;;;;4951845;29;20023;-80
2022/12/17 15:01:56;;;;;;;21.43;8.50;;;;;;;;;;4966484;28;20031;-81
2022/12/17 15:04:22;;;;;;;22.07;9.33;;;;;;;;;;4951525;29;20463;-81
2022/12/17 15:06:48;;;;;;;23.83;9.80;;;;;;;;;;4955447;28;20529;-80
2022/12/17 15:09:14;;;;;;;22.47;10.33;;;;;;;;;;4955563;29;20035;-80
2022/12/17 15:11:40;;;;;;;22.77;9.53;;;;;;;;;;4954305;29;20042;-82
2022/12/17 15:14:05;;;;;;;30.10;11.63;;;;;;;;;;4954438;29;20031;-81
2022/12/17 15:16:31;;;;;;;27.53;11.03;;;;;;;;;;4970188;28;20189;-79
2022/12/17 15:18:57;;;;;;;25.90;10.03;;;;;;;;;;4953924;29;20039;-82
2022/12/17 15:21:24;;;;;;;26.83;10.90;;;;;;;;;;4970530;28;20058;-81
2022/12/17 15:23:49;;;;;;;26.07;10.77;;;;;;;;;;4956195;28;20035;-82
2022/12/17 15:26:16;;;;;;;25.73;10.53;;;;;;;;;;4971126;28;20053;-80
2022/12/17 15:28:42;;;;;;;27.10;11.50;;;;;;;;;;4970452;28;20050;-80
2022/12/17 15:31:12;;;;;;;26.10;12.33;;;;;;;;;;4955303;29;20158;-81
2022/12/17 15:33:38;;;;;;;36.67;13.40;;;;;;;;;;4970104;28;20035;-80
2022/12/17 15:36:04;;;;;;;30.30;12.23;;;;;;;;;;4970143;28;20038;-82
2022/12/17 15:38:29;;;;;;;32.20;13.17;;;;;;;;;;4955822;29;20038;-80
2022/12/17 15:40:58;;;;;;;36.80;12.97;;;;;;;;;;4959469;29;20399;-80
2022/12/17 15:43:23;;;;;;;34.37;12.70;;;;;;;;;;4954530;28;20235;-80
2022/12/17 15:45:50;;;;;;;37.33;14.77;;;;;;;;;;4953521;29;20121;-80
2022/12/17 15:48:18;;;;;;;32.97;13.70;;;;;;;;;;4954293;28;20035;-79
2022/12/17 15:50:44;;;;;;;36.20;13.10;;;;;;;;;;4955765;28;20054;-81
2022/12/17 15:53:10;;;;;;;45.23;12.93;;;;;;;;;;4953680;29;20484;-80
2022/12/17 15:55:37;;;;;;;36.40;14.77;;;;;;;;;;4969749;28;20031;-81
2022/12/17 15:58:03;;;;;;;37.57;14.00;;;;;;;;;;4970669;28;20342;-80
2022/12/17 16:00:29;;;;;;;37.63;13.97;;;;;;;;;;4955350;28;20046;-80
2022/12/17 16:02:54;;;;;;;28.67;13.50;;;;;;;;;;4955070;29;20035;-79
2022/12/17 16:05:21;;;;;;;30.10;13.73;;;;;;;;;;4953293;28;20038;-80
2022/12/17 16:07:46;;;;;;;35.83;15.10;;;;;;;;;;4955203;28;20038;-83
2022/12/17 16:10:13;;;;;;;33.50;14.83;;;;;;;;;;4954243;29;20054;-80
2022/12/17 16:12:39;;;;;;;37.20;15.07;;;;;;;;;;4970010;28;20023;-77
2022/12/17 16:15:05;;;;;;;34.17;15.90;;;;;;;;;;4954100;29;20435;-76
2022/12/17 16:17:31;;;;;;;41.57;16.97;;;;;;;;;;4967667;28;20042;-77
2022/12/17 16:19:56;;;;;;;38.37;14.93;;;;;;;;;;4953067;29;20031;-76
2022/12/17 16:22:22;;;;;;;37.73;13.63;;;;;;;;;;4968987;28;20037;-76
2022/12/17 16:24:48;;;;;;;30.77;13.50;;;;;;;;;;4954206;28;20027;-76
2022/12/17 16:27:16;;;;;;;34.80;15.47;;;;;;;;;;4968932;28;20042;-76
2022/12/17 16:29:42;;;;;;;40.57;17.23;;;;;;;;;;4953140;28;20075;-77
2022/12/17 16:32:08;;;;;;;32.63;13.90;;;;;;;;;;4969329;28;20114;-76
2022/12/17 16:34:33;;;;;;;31.13;13.20;;;;;;;;;;4953198;29;20027;-76
2022/12/17 16:37:00;;;;;;;33.17;14.70;;;;;;;;;;4946237;29;20508;-76
2022/12/17 16:39:26;;;;;;;39.63;15.93;;;;;;;;;;4935464;29;20476;-75
2022/12/17 16:41:52;;;;;;;41.40;16.03;;;;;;;;;;4934395;29;20067;-76
2022/12/17 16:44:17;;;;;;;34.93;14.40;;;;;;;;;;4933925;29;20040;-74
2022/12/17 16:46:45;;;;;;;42.60;15.20;;;;;;;;;;4934446;29;20024;-76
2022/12/17 16:49:22;;;;;;;56.30;20.53;;;;;;;;;;4933129;29;20050;-77
2022/12/17 16:51:52;;;;;;;49.10;18.07;;;;;;;;;;4934650;29;20030;-76
2022/12/17 16:54:20;;;;;;;37.73;16.17;;;;;;;;;;4933233;29;20049;-76
2022/12/17 16:56:46;;;;;;;36.67;16.07;;;;;;;;;;4933284;29;20051;-76
2022/12/17 16:59:13;;;;;;;40.77;16.43;;;;;;;;;;4933469;29;20066;-76
2022/12/17 17:01:42;;;;;;;44.60;17.70;;;;;;;;;;4932913;29;20381;-76
2022/12/17 17:04:08;;;;;;;38.03;17.33;;;;;;;;;;4935027;29;20031;-75
2022/12/17 17:06:45;;;;;;;45.63;18.60;;;;;;;;;;4932763;29;20118;-77
2022/12/17 17:09:11;;;;;;;46.37;18.13;;;;;;;;;;4934490;29;20050;-78
2022/12/17 17:11:38;;;;;;;52.97;18.40;;;;;;;;;;4932998;29;20042;-74
2022/12/17 17:14:04;;;;;;;44.93;18.13;;;;;;;;;;4932920;29;20047;-75
2022/12/17 17:16:30;;;;;;;69.93;41.40;;;;;;;;;;4933529;29;20035;-76
2022/12/17 17:18:56;;;;;;;48.53;20.50;;;;;;;;;;4933702;29;20388;-76
2022/12/17 17:21:31;;;;;;;42.50;17.07;;;;;;;;;;4933280;29;20127;-76
2022/12/17 17:24:08;;;;;;;51.30;19.23;;;;;;;;;;4932913;29;20027;-76
2022/12/17 17:26:34;;;;;;;43.60;17.57;;;;;;;;;;4938291;29;20051;-72
2022/12/17 17:29:00;;;;;;;48.97;19.27;;;;;;;;;;4935453;29;20031;-76
2022/12/17 17:31:27;;;;;;;50.37;20.07;;;;;;;;;;4938878;29;20053;-75
2022/12/17 17:33:55;;;;;;;47.70;17.80;;;;;;;;;;4937910;29;20093;-76
2022/12/17 17:36:27;;;;;;;53.47;21.23;;;;;;;;;;4923014;29;20453;-75
2022/12/17 17:38:57;;;;;;;55.83;20.40;;;;;;;;;;4952343;28;20031;-75
2022/12/17 17:41:28;;;;;;;53.23;19.70;;;;;;;;;;4951434;29;20364;-76
2022/12/17 17:44:01;;;;;;;52.03;20.17;;;;;;;;;;4954958;28;20027;-75
2022/12/17 17:46:28;;;;;;;51.67;19.27;;;;;;;;;;4971308;28;20030;-77
2022/12/17 17:48:58;;;;;;;48.13;18.57;;;;;;;;;;4951560;28;20039;-75
2022/12/17 17:51:27;;;;;;;73.30;27.37;;;;;;;;;;4951647;29;20106;-75
2022/12/17 17:53:54;;;;;;;50.23;21.37;;;;;;;;;;4953471;28;20028;-75
2022/12/17 17:56:23;;;;;;;48.47;19.53;;;;;;;;;;4953858;29;20028;-76
2022/12/17 17:59:01;;;;;;;51.33;19.93;;;;;;;;;;4954739;28;20026;-75
2022/12/17 18:01:52;;;;;;;56.80;19.57;;;;;;;;;;4968296;28;20468;-76
2022/12/17 18:04:20;;;;;;;48.93;18.47;;;;;;;;;;4952600;28;20460;-74
2022/12/17 18:06:47;;;;;;;54.33;20.00;;;;;;;;;;4967252;28;20466;-77
2022/12/17 18:09:13;;;;;;;55.97;18.93;;;;;;;;;;4967622;28;20038;-76
2022/12/17 18:11:41;;;;;;;64.07;26.60;;;;;;;;;;4952931;29;20027;-75
2022/12/17 18:14:09;;;;;;;38.63;14.97;;;;;;;;;;4952790;28;20098;-75
2022/12/17 18:16:45;;;;;;;48.00;17.03;;;;;;;;;;4967122;28;20115;-76
2022/12/17 18:19:18;;;;;;;41.40;16.30;;;;;;;;;;4966884;28;20030;-75
2022/12/17 18:21:46;;;;;;;40.87;15.43;;;;;;;;;;4966564;28;20033;-75
2022/12/17 18:24:21;;;;;;;39.67;16.40;;;;;;;;;;4952342;28;20031;-76
2022/12/17 18:26:48;;;;;;;33.50;13.87;;;;;;;;;;4966664;28;20437;-76
2022/12/17 18:29:17;;;;;;;44.90;15.43;;;;;;;;;;4951930;28;20030;-75
2022/12/17 18:31:42;;;;;;;39.30;12.70;;;;;;;;;;4950207;29;20045;-75
2022/12/17 18:34:11;;;;;;;37.00;13.57;;;;;;;;;;4966470;28;20456;-76
2022/12/17 18:36:40;;;;;;;47.20;15.83;;;;;;;;;;4951648;28;20372;-77
2022/12/17 18:39:10;;;;;;;41.30;14.27;;;;;;;;;;4951876;28;20031;-76
2022/12/17 18:44:20;;;;;;;37.17;14.73;;;;;;;;;;4937690;29;20554;-76
2022/12/17 18:46:46;;;;;;;39.80;14.40;;;;;;;;;;4950544;29;20035;-75
2022/12/17 18:49:14;;;;;;;44.67;15.70;;;;;;;;;;4934822;29;20035;-75
2022/12/17 18:51:43;;;;;;;41.97;15.70;;;;;;;;;;4950198;29;20027;-76
2022/12/17 18:54:12;;;;;;;43.23;14.33;;;;;;;;;;4951712;29;20027;-77
2022/12/17 18:56:38;;;;;;;47.57;19.37;;;;;;;;;;4951854;29;20119;-75
2022/12/17 18:59:04;;;;;;;37.60;15.17;;;;;;;;;;4952237;28;20109;-75
2022/12/17 19:01:33;;;;;;;40.30;15.43;;;;;;;;;;4951675;29;20023;-75
2022/12/17 19:04:07;;;;;;;51.70;17.77;;;;;;;;;;4950369;29;20039;-74
2022/12/17 19:06:34;;;;;;;47.93;15.23;;;;;;;;;;4951803;29;20098;-75
2022/12/17 19:09:00;;;;;;;47.37;15.40;;;;;;;;;;4950698;29;20035;-75
2022/12/17 19:11:26;;;;;;;84.83;34.27;;;;;;;;;;4934217;29;20023;-76
2022/12/17 19:13:52;;;;;;;49.50;18.70;;;;;;;;;;4951363;29;20023;-75
2022/12/17 19:16:23;;;;;;;43.13;16.93;;;;;;;;;;4934251;29;20027;-77
2022/12/17 19:18:57;;;;;;;40.20;15.73;;;;;;;;;;4951542;29;20039;-76
2022/12/17 19:21:23;;;;;;;35.13;15.07;;;;;;;;;;4952033;29;20031;-75
2022/12/17 19:23:49;;;;;;;41.80;16.20;;;;;;;;;;4951735;28;20058;-77
2022/12/17 19:26:20;;;;;;;34.97;13.63;;;;;;;;;;4934334;29;20027;-75
2022/12/17 19:28:50;;;;;;;43.10;15.50;;;;;;;;;;4936196;29;20122;-76
2022/12/17 19:31:18;;;;;;;50.50;17.77;;;;;;;;;;4952132;29;20034;-76
2022/12/17 19:33:44;;;;;;;56.27;18.67;;;;;;;;;;4952438;28;20023;-75
2022/12/17 19:36:13;;;;;;;62.37;25.63;;;;;;;;;;4953704;29;20150;-76
2022/12/17 19:38:39;;;;;;;52.17;18.87;;;;;;;;;;4951870;29;20162;-76
2022/12/17 19:41:07;;;;;;;54.53;21.83;;;;;;;;;;4951696;28;20117;-76
2022/12/17 19:43:33;;;;;;;59.97;20.87;;;;;;;;;;4951237;29;20089;-75
2022/12/17 19:46:08;;;;;;;56.80;22.13;;;;;;;;;;4950165;29;20094;-77
2022/12/17 19:48:36;;;;;;;67.43;22.20;;;;;;;;;;4950221;29;20027;-75
2022/12/17 19:51:04;;;;;;;57.20;22.20;;;;;;;;;;4935011;28;20412;-77
2022/12/17 19:53:31;;;;;;;58.27;22.93;;;;;;;;;;4953316;28;20067;-75
2022/12/17 19:56:18;;;;;;;61.97;25.03;;;;;;;;;;4939662;29;20618;-76
2022/12/17 19:58:45;;;;;;;64.63;24.20;;;;;;;;;;4954451;29;20097;-75
2022/12/17 20:01:15;;;;;;;67.80;25.20;;;;;;;;;;4954995;28;20364;-74
2022/12/17 20:03:42;;;;;;;53.77;23.03;;;;;;;;;;4937336;29;20237;-74
2022/12/17 20:06:10;;;;;;;64.80;24.77;;;;;;;;;;4954867;29;20330;-74
2022/12/17 20:08:36;;;;;;;56.17;23.07;;;;;;;;;;4953550;29;20130;-74
2022/12/17 20:11:31;;;;;;;56.30;22.73;;;;;;;;;;4937519;29;20590;-75
2022/12/17 20:14:12;;;;;;;60.77;23.07;;;;;;;;;;4954795;29;20043;-76
2022/12/17 20:16:57;;;;;;;61.17;24.10;;;;;;;;;;4954600;29;20027;-75
2022/12/17 20:19:31;;;;;;;62.87;25.13;;;;;;;;;;4937233;29;20062;-75
2022/12/17 20:21:58;;;;;;;69.17;27.80;;;;;;;;;;4953063;29;20122;-76
2022/12/17 20:24:23;;;;;;;69.67;30.00;;;;;;;;;;4952695;29;20118;-76
2022/12/17 20:26:51;;;;;;;73.77;30.57;;;;;;;;;;4953078;29;20126;-76
2022/12/17 20:29:20;;;;;;;82.50;33.57;;;;;;;;;;4953196;28;20067;-76
2022/12/17 20:31:51;;;;;;;88.60;34.27;;;;;;;;;;4954578;29;20055;-76
2022/12/17 20:34:19;;;;;;;76.33;33.83;;;;;;;;;;4954486;28;20039;-75
2022/12/17 20:36:44;;;;;;;66.50;30.80;;;;;;;;;;4933825;29;20032;-75
2022/12/17 20:39:11;;;;;;;76.20;29.13;;;;;;;;;;4933880;29;20090;-76
2022/12/17 20:41:39;;;;;;;71.53;28.57;;;;;;;;;;4933407;29;20098;-76
2022/12/17 20:44:07;;;;;;;83.23;30.23;;;;;;;;;;4933792;29;20400;-75
2022/12/17 20:46:35;;;;;;;69.60;27.77;;;;;;;;;;4933533;29;20058;-75
2022/12/17 20:49:02;;;;;;;58.50;24.83;;;;;;;;;;4935527;29;20099;-75
2022/12/17 20:51:28;;;;;;;70.93;28.73;;;;;;;;;;4933604;29;20040;-76
2022/12/17 20:53:55;;;;;;;60.43;24.73;;;;;;;;;;4934955;29;20031;-75
2022/12/17 20:56:24;;;;;;;62.43;25.57;;;;;;;;;;4933371;29;20031;-75
2022/12/17 20:58:57;;;;;;;289.73;99.13;;;;;;;;;;4933207;29;20040;-76
2022/12/17 21:01:24;;;;;;;243.60;73.83;;;;;;;;;;4933438;29;20476;-75
2022/12/17 21:03:52;;;;;;;77.70;29.93;;;;;;;;;;4934063;29;20043;-76
2022/12/17 21:06:20;;;;;;;61.47;24.70;;;;;;;;;;4933333;29;20031;-76
2022/12/17 21:08:48;;;;;;;70.50;27.90;;;;;;;;;;4933152;29;20023;-78
2022/12/17 21:11:14;;;;;;;60.53;23.40;;;;;;;;;;4934497;29;20031;-76
2022/12/17 21:13:40;;;;;;;64.33;22.47;;;;;;;;;;4932995;29;20050;-76
2022/12/17 21:16:12;;;;;;;62.33;22.83;;;;;;;;;;4934226;29;20031;-78
2022/12/17 21:18:39;;;;;;;65.60;23.27;;;;;;;;;;4933918;29;20031;-75
2022/12/17 21:21:09;;;;;;;58.43;22.67;;;;;;;;;;4933602;29;20039;-75
2022/12/17 21:23:36;;;;;;;60.07;21.83;;;;;;;;;;4932420;29;20039;-76
2022/12/17 21:26:07;;;;;;;120.07;36.30;;;;;;;;;;4934076;29;20027;-76
2022/12/17 21:28:35;;;;;;;65.87;26.70;;;;;;;;;;4932518;29;20039;-76
2022/12/17 21:31:01;;;;;;;59.70;24.67;;;;;;;;;;4916652;29;20040;-74
2022/12/17 21:33:27;;;;;;;62.83;23.87;;;;;;;;;;4932196;29;20087;-76
2022/12/17 21:36:00;;;;;;;59.93;23.37;;;;;;;;;;4932468;29;20027;-77
2022/12/17 21:38:26;;;;;;;57.10;23.73;;;;;;;;;;4964013;28;20038;-75
2022/12/17 21:40:52;;;;;;;54.53;21.83;;;;;;;;;;4953143;29;20030;-76
2022/12/17 21:43:17;;;;;;;66.43;24.80;;;;;;;;;;4952870;28;20047;-76
2022/12/17 21:45:42;;;;;;;54.30;21.87;;;;;;;;;;4952851;28;20015;-75
2022/12/17 21:48:09;;;;;;;68.73;24.60;;;;;;;;;;4951752;29;20031;-75
2022/12/17 21:50:43;;;;;;;59.57;25.27;;;;;;;;;;4935908;29;20034;-75
2022/12/17 21:53:10;;;;;;;57.73;24.53;;;;;;;;;;4953946;28;20051;-76
2022/12/17 21:55:36;;;;;;;97.27;37.33;;;;;;;;;;4968292;28;20027;-76
2022/12/17 21:58:02;;;;;;;70.03;26.63;;;;;;;;;;4953807;28;20387;-76
2022/12/17 22:00:28;;;;;;;61.57;24.13;;;;;;;;;;4951190;29;20472;-77
2022/12/17 22:02:54;;;;;;;72.80;25.47;;;;;;;;;;4951280;29;20073;-76
2022/12/17 22:05:20;;;;;;;66.93;26.80;;;;;;;;;;4952602;29;20348;-76
2022/12/17 22:07:46;;;;;;;61.00;25.27;;;;;;;;;;4967340;28;20054;-75
2022/12/17 22:10:11;;;;;;;60.43;26.63;;;;;;;;;;4952712;28;20027;-75
2022/12/17 22:15:21;;;;;;;66.10;25.00;;;;;;;;;;4951962;28;20078;-77
2022/12/17 22:17:47;;;;;;;64.27;24.90;;;;;;;;;;4952608;29;20050;-75
2022/12/17 22:20:15;;;;;;;67.00;27.30;;;;;;;;;;4952202;28;20444;-75
2022/12/17 22:22:40;;;;;;;64.83;25.20;;;;;;;;;;4950431;29;20110;-76
2022/12/17 22:25:08;;;;;;;70.43;26.87;;;;;;;;;;4966955;28;20106;-73
2022/12/17 22:27:33;;;;;;;65.93;28.00;;;;;;;;;;4952312;28;20050;-75
2022/12/17 22:35:35;;;;;;;67.43;26.87;;;;;;;;;;4951859;29;20034;-75
2022/12/17 22:38:03;;;;;;;67.87;27.33;;;;;;;;;;4950559;28;20027;-75
2022/12/17 22:40:34;;;;;;;70.27;28.37;;;;;;;;;;4951806;28;20023;-74
2022/12/17 22:45:44;;;;;;;61.17;27.00;;;;;;;;;;4952183;29;20163;-76
2022/12/17 22:48:11;;;;;;;91.57;37.73;;;;;;;;;;4952192;28;20110;-76
2022/12/17 22:50:37;;;;;;;63.77;29.47;;;;;;;;;;4966772;28;20424;-75
2022/12/17 22:53:04;;;;;;;70.50;26.80;;;;;;;;;;4950712;29;20083;-75
2022/12/17 22:55:30;;;;;;;67.10;26.80;;;;;;;;;;4950887;29;20032;-75
2022/12/17 22:57:56;;;;;;;60.67;26.80;;;;;;;;;;4952437;28;20040;-75
2022/12/17 23:00:25;;;;;;;68.03;26.73;;;;;;;;;;4952623;28;20045;-75
2022/12/17 23:02:53;;;;;;;71.03;28.53;;;;;;;;;;4951349;29;20043;-75
2022/12/17 23:05:20;;;;;;;78.13;29.50;;;;;;;;;;4967920;28;20031;-74
2022/12/17 23:07:46;;;;;;;69.47;28.03;;;;;;;;;;4952488;28;20034;-75
2022/12/17 23:10:11;;;;;;;76.77;26.83;;;;;;;;;;4952501;28;20031;-75
2022/12/17 23:12:51;;;;;;;80.90;29.53;;;;;;;;;;4966447;28;20090;-76
2022/12/17 23:15:18;;;;;;;73.17;26.53;;;;;;;;;;4966177;28;20033;-75
2022/12/17 23:17:44;;;;;;;70.33;26.73;;;;;;;;;;4966070;28;20035;-75
2022/12/17 23:20:10;;;;;;;77.33;28.47;;;;;;;;;;4951780;29;20030;-75
2022/12/17 23:22:36;;;;;;;69.80;28.67;;;;;;;;;;4951780;28;20114;-74
2022/12/17 23:25:02;;;;;;;76.37;28.93;;;;;;;;;;4966650;28;20109;-73
2022/12/17 23:27:28;;;;;;;74.23;30.50;;;;;;;;;;4969192;28;20372;-76
2022/12/17 23:29:53;;;;;;;92.33;31.20;;;;;;;;;;4970325;28;20041;-76
2022/12/17 23:32:19;;;;;;;88.70;33.57;;;;;;;;;;4969793;28;20086;-74
2022/12/17 23:34:45;;;;;;;93.00;34.47;;;;;;;;;;4953585;29;20066;-75
2022/12/17 23:37:10;;;;;;;82.50;31.50;;;;;;;;;;4965353;28;20634;-75
2022/12/17 23:39:36;;;;;;;95.57;33.50;;;;;;;;;;4954421;29;20067;-75
2022/12/17 23:42:01;;;;;;;91.37;33.57;;;;;;;;;;4950164;29;20381;-75
2022/12/17 23:44:27;;;;;;;86.10;32.23;;;;;;;;;;4935855;29;20067;-75
2022/12/17 23:46:53;;;;;;;94.40;31.60;;;;;;;;;;4934186;29;20583;-74
2022/12/17 23:49:18;;;;;;;84.30;31.67;;;;;;;;;;4934502;29;20107;-75
2022/12/17 23:51:44;;;;;;;78.77;30.53;;;;;;;;;;4934156;29;20031;-74
2022/12/17 23:54:09;;;;;;;92.90;31.10;;;;;;;;;;4935682;29;20027;-75
2022/12/17 23:56:35;;;;;;;96.13;32.23;;;;;;;;;;4949843;28;20539;-74
2022/12/17 23:59:02;;;;;;;81.63;32.30;;;;;;;;;;4950117;29;20059;-75
